createdAt,value
2018-06-22T00:00:08.252Z,52.30
2018-06-22T00:02:36.740Z,51.80
2018-06-22T00:05:06.388Z,51.90
2018-06-22T00:07:38.543Z,51.60
2018-06-22T00:10:07.020Z,51.60
2018-06-22T00:12:35.465Z,51.60
2018-06-22T00:15:04.027Z,51.60
2018-06-22T00:22:28.916Z,51.20
2018-06-22T00:24:58.342Z,50.90
2018-06-22T00:27:26.768Z,50.50
2018-06-22T00:29:55.365Z,50.60
2018-06-22T00:32:23.835Z,50.90
2018-06-22T00:34:53.434Z,50.70
2018-06-22T00:37:22.223Z,50.50
2018-06-22T00:39:50.663Z,50.30
2018-06-22T00:42:19.130Z,50.60
2018-06-22T00:44:47.561Z,50.90
2018-06-22T00:47:15.980Z,50.90
2018-06-22T00:49:44.479Z,51.10
2018-06-22T00:52:12.900Z,51.10
2018-06-22T00:54:41.330Z,51.10
2018-06-22T00:57:10.681Z,51.30
2018-06-22T00:59:39.127Z,51.30
2018-06-22T01:04:35.671Z,51.10
2018-06-22T01:07:04.091Z,51.10
2018-06-22T01:09:32.530Z,51.20
2018-06-22T01:16:59.441Z,50.80
2018-06-22T01:19:27.926Z,51.00
2018-06-22T01:21:56.434Z,50.90
2018-06-22T01:24:24.799Z,50.80
2018-06-22T01:26:53.178Z,50.80
2018-06-22T01:29:28.079Z,51.70
2018-06-22T01:31:56.584Z,51.00
2018-06-22T01:34:25.782Z,51.20
2018-06-22T01:36:55.299Z,51.40
2018-06-22T01:39:23.874Z,51.60
2018-06-22T01:41:52.477Z,52.30
2018-06-22T01:44:21.003Z,51.60
2018-06-22T01:46:49.450Z,51.60
2018-06-22T01:49:17.966Z,51.50
2018-06-22T01:51:46.495Z,51.10
2018-06-22T01:54:14.978Z,51.80
2018-06-22T01:56:43.442Z,51.80
2018-06-22T01:59:11.890Z,51.90
2018-06-22T02:01:40.392Z,51.90
2018-06-22T02:04:08.840Z,52.10
2018-06-22T02:06:37.370Z,52.00
2018-06-22T02:09:10.571Z,52.20
2018-06-22T02:11:39.122Z,52.40
2018-06-22T02:14:07.616Z,52.00
2018-06-22T02:16:36.492Z,52.10
2018-06-22T02:19:05.016Z,52.20
2018-06-22T02:21:33.555Z,52.20
2018-06-22T02:24:02.127Z,52.50
2018-06-22T02:26:30.571Z,52.60
2018-06-22T02:33:55.482Z,52.50
2018-06-22T02:36:23.964Z,52.50
2018-06-22T02:38:52.591Z,52.50
2018-06-22T02:41:21.099Z,52.60
2018-06-22T02:43:49.631Z,52.70
2018-06-22T02:48:46.345Z,52.70
2018-06-22T02:51:14.851Z,53.40
2018-06-22T02:53:43.331Z,52.60
2018-06-22T02:56:11.811Z,52.90
2018-06-22T02:58:40.359Z,52.90
2018-06-22T03:01:09.291Z,52.80
2018-06-22T03:06:05.927Z,52.90
2018-06-22T03:08:34.414Z,53.00
2018-06-22T03:11:02.903Z,53.20
2018-06-22T03:16:00.739Z,53.70
2018-06-22T03:18:29.234Z,53.80
2018-06-22T03:20:57.740Z,53.90
2018-06-22T03:23:26.270Z,54.00
2018-06-22T03:25:54.834Z,54.10
2018-06-22T03:28:23.971Z,54.00
2018-06-22T03:30:53.575Z,54.20
2018-06-22T03:33:22.382Z,54.30
2018-06-22T03:38:19.008Z,54.50
2018-06-22T03:40:47.695Z,54.50
2018-06-22T03:43:16.286Z,54.50
2018-06-22T03:45:44.759Z,54.70
2018-06-22T03:48:13.347Z,54.70
2018-06-22T03:50:41.911Z,55.00
2018-06-22T03:53:10.514Z,55.10
2018-06-22T03:58:07.271Z,55.60
2018-06-22T04:00:35.771Z,54.90
2018-06-22T04:03:04.290Z,55.00
2018-06-22T04:05:32.859Z,54.80
2018-06-22T04:17:55.155Z,54.80
2018-06-22T04:22:55.401Z,54.70
2018-06-22T04:25:25.020Z,54.90
2018-06-22T04:27:53.674Z,54.80
2018-06-22T04:30:22.682Z,54.70
2018-06-22T04:35:19.808Z,55.20
2018-06-22T04:37:48.409Z,55.10
2018-06-22T04:40:16.888Z,55.00
2018-06-22T04:42:45.469Z,55.00
2018-06-22T04:45:13.943Z,55.10
2018-06-22T04:47:43.250Z,55.00
2018-06-22T04:50:11.800Z,54.70
2018-06-22T04:52:41.102Z,54.70
2018-06-22T04:55:09.632Z,54.40
2018-06-22T04:57:38.170Z,54.20
2018-06-22T05:00:06.771Z,54.00
2018-06-22T05:02:35.354Z,54.00
2018-06-22T05:05:03.908Z,53.80
2018-06-22T05:07:32.443Z,53.80
2018-06-22T05:12:29.101Z,53.90
2018-06-22T05:14:57.573Z,54.50
2018-06-22T05:22:22.334Z,53.70
2018-06-22T05:24:50.869Z,53.60
2018-06-22T05:27:19.512Z,53.50
2018-06-22T05:29:48.006Z,53.60
2018-06-22T05:32:16.547Z,53.70
2018-06-22T05:34:45.143Z,53.80
2018-06-22T05:37:13.946Z,53.90
2018-06-22T05:39:42.474Z,54.00
2018-06-22T05:42:11.004Z,54.30
2018-06-22T05:44:40.248Z,54.30
2018-06-22T05:52:05.393Z,54.40
2018-06-22T05:57:02.129Z,54.30
2018-06-22T05:59:30.733Z,54.50
2018-06-22T06:01:59.289Z,54.40
2018-06-22T06:04:27.828Z,54.40
2018-06-22T06:06:56.352Z,54.40
2018-06-22T06:09:24.923Z,54.10
2018-06-22T06:11:53.503Z,53.60
2018-06-22T06:14:22.616Z,53.50
2018-06-22T06:16:51.210Z,53.40
2018-06-22T06:19:19.675Z,53.40
2018-06-22T06:26:44.475Z,53.40
2018-06-22T06:29:13.016Z,53.40
2018-06-22T06:31:41.464Z,53.20
2018-06-22T06:34:10.057Z,52.90
2018-06-22T06:39:07.703Z,53.10
2018-06-22T06:41:36.183Z,53.00
2018-06-22T06:44:06.946Z,52.40
2018-06-22T06:46:35.560Z,52.00
2018-06-22T06:49:04.475Z,52.00
2018-06-22T06:51:33.521Z,50.80
2018-06-22T06:54:04.298Z,49.50
2018-06-22T06:56:35.432Z,48.50
2018-06-22T06:59:04.422Z,46.90
2018-06-22T07:01:32.955Z,45.20
2018-06-22T07:06:30.323Z,44.50
2018-06-22T07:08:58.770Z,44.40
2018-06-22T07:11:27.384Z,44.70
2018-06-22T07:13:55.942Z,45.30
2018-06-22T07:16:24.939Z,45.50
2018-06-22T07:18:53.554Z,46.00
2018-06-22T07:21:22.041Z,46.70
2018-06-22T07:23:50.651Z,47.00
2018-06-22T07:26:19.213Z,47.00
2018-06-22T07:33:44.039Z,47.40
2018-06-22T07:38:41.014Z,48.30
2018-06-22T07:41:09.847Z,47.60
2018-06-22T07:43:38.416Z,47.80
2018-06-22T07:46:07.052Z,47.50
2018-06-22T07:48:35.515Z,47.50
2018-06-22T07:51:03.975Z,47.80
2018-06-22T07:53:32.466Z,47.70
2018-06-22T07:56:01.223Z,47.90
2018-06-22T07:58:29.858Z,47.20
2018-06-22T08:03:26.825Z,47.40
2018-06-22T08:08:24.086Z,48.30
2018-06-22T08:10:52.705Z,48.00
2018-06-22T08:13:21.228Z,47.90
2018-06-22T08:15:49.731Z,47.70
2018-06-22T08:18:21.555Z,48.30
2018-06-22T08:20:49.999Z,47.80
2018-06-22T08:23:18.449Z,48.30
2018-06-22T08:25:46.887Z,48.50
2018-06-22T08:28:17.361Z,48.50
2018-06-22T08:38:10.411Z,48.40
2018-06-22T08:40:38.918Z,47.80
2018-06-22T08:43:07.431Z,47.30
2018-06-22T08:48:04.140Z,46.80
2018-06-22T08:50:33.818Z,47.30
2018-06-22T08:53:02.462Z,46.40
2018-06-22T08:57:59.175Z,47.10
2018-06-22T09:00:27.858Z,47.40
2018-06-22T09:02:56.483Z,47.80
2018-06-22T09:05:24.971Z,48.00
2018-06-22T09:07:53.478Z,48.00
2018-06-22T09:10:21.962Z,48.30
2018-06-22T09:12:50.460Z,47.60
2018-06-22T09:15:18.982Z,47.60
2018-06-22T09:17:47.859Z,47.50
2018-06-22T09:20:16.457Z,47.50
2018-06-22T09:22:45.594Z,47.60
2018-06-22T09:25:14.147Z,48.00
2018-06-22T09:27:42.642Z,48.20
2018-06-22T09:30:11.206Z,48.10
2018-06-22T09:32:39.724Z,48.00
2018-06-22T09:35:08.882Z,47.90
2018-06-22T09:37:37.982Z,47.70
2018-06-22T09:42:34.834Z,46.70
2018-06-22T09:45:03.355Z,46.20
2018-06-22T09:47:31.900Z,45.50
2018-06-22T09:50:00.483Z,44.60
2018-06-22T09:52:29.017Z,44.60
2018-06-22T09:54:57.484Z,45.00
2018-06-22T09:57:26.050Z,44.60
2018-06-22T09:59:54.566Z,45.00
2018-06-22T10:02:23.033Z,45.30
2018-06-22T10:04:51.691Z,45.70
2018-06-22T10:07:20.189Z,46.20
2018-06-22T10:09:48.798Z,46.60
2018-06-22T10:12:17.454Z,46.40
2018-06-22T10:14:46.000Z,45.90
2018-06-22T10:17:14.494Z,46.00
2018-06-22T10:22:11.611Z,45.80
2018-06-22T10:24:40.076Z,45.50
2018-06-22T10:27:08.540Z,45.60
2018-06-22T10:29:37.088Z,46.10
2018-06-22T10:34:33.739Z,46.50
2018-06-22T10:37:02.223Z,46.70
2018-06-22T10:42:00.130Z,46.70
2018-06-22T10:44:28.643Z,46.50
2018-06-22T10:46:57.175Z,46.70
2018-06-22T10:49:29.046Z,46.20
2018-06-22T10:51:57.732Z,45.90
2018-06-22T10:54:26.339Z,45.60
2018-06-22T10:56:54.991Z,45.30
2018-06-22T11:01:51.738Z,44.20
2018-06-22T11:06:48.539Z,43.50
2018-06-22T11:09:17.695Z,43.60
2018-06-22T11:14:14.417Z,43.30
2018-06-22T11:16:43.436Z,43.40
2018-06-22T11:19:12.827Z,43.50
2018-06-22T11:21:41.316Z,43.20
2018-06-22T11:29:07.674Z,42.50
2018-06-22T11:31:50.579Z,42.60
2018-06-22T11:34:19.257Z,42.80
2018-06-22T11:36:47.889Z,42.70
2018-06-22T11:39:16.864Z,42.80
2018-06-22T11:44:15.793Z,42.40
2018-06-22T11:46:44.730Z,42.00
2018-06-22T11:49:13.263Z,41.60
2018-06-22T11:51:41.811Z,41.70
2018-06-22T11:54:10.489Z,41.70
2018-06-22T11:56:39.018Z,41.90
2018-06-22T11:59:07.556Z,43.50
2018-06-22T12:01:36.147Z,45.20
2018-06-22T12:04:05.642Z,46.70
2018-06-22T12:09:08.688Z,46.70
2018-06-22T12:11:37.321Z,47.60
2018-06-22T12:14:09.313Z,46.90
2018-06-22T12:16:38.100Z,46.20
2018-06-22T12:21:34.884Z,44.20
2018-06-22T12:24:03.461Z,43.90
2018-06-22T12:26:32.008Z,43.50
2018-06-22T12:29:03.004Z,43.40
2018-06-22T12:31:36.960Z,43.80
2018-06-22T12:34:05.668Z,44.90
2018-06-22T12:37:03.712Z,45.60
2018-06-22T12:39:50.143Z,45.50
2018-06-22T12:42:19.458Z,44.90
2018-06-22T12:47:40.332Z,44.50
2018-06-22T12:50:09.243Z,43.90
2018-06-22T12:53:05.202Z,43.70
2018-06-22T12:55:33.800Z,43.10
2018-06-22T12:58:02.371Z,42.30
2018-06-22T13:00:30.863Z,42.50
2018-06-22T13:05:54.398Z,43.10
2018-06-22T13:08:25.293Z,43.70
2018-06-22T13:10:53.861Z,43.80
2018-06-22T13:13:22.392Z,44.00
2018-06-22T13:15:51.118Z,44.10
2018-06-22T13:18:19.663Z,45.40
2018-06-22T13:20:49.161Z,47.00
2018-06-22T13:23:18.720Z,49.30
2018-06-22T13:25:47.202Z,49.70
2018-06-22T13:28:16.407Z,49.50
2018-06-22T13:30:44.982Z,49.90
2018-06-22T13:33:13.717Z,49.60
2018-06-22T13:35:42.201Z,49.30
2018-06-22T13:38:10.779Z,48.70
2018-06-22T13:43:07.867Z,47.10
2018-06-22T13:45:37.415Z,46.30
2018-06-22T13:48:06.155Z,45.30
2018-06-22T13:50:34.687Z,45.00
2018-06-22T13:53:03.157Z,44.70
2018-06-22T13:55:31.892Z,45.50
2018-06-22T13:58:00.688Z,46.40
2018-06-22T14:00:32.376Z,46.70
2018-06-22T14:03:00.921Z,46.90
2018-06-22T14:05:34.868Z,47.00
2018-06-22T14:08:03.438Z,47.00
2018-06-22T14:10:33.066Z,46.40
2018-06-22T14:13:01.711Z,46.10
2018-06-22T14:15:32.073Z,45.50
2018-06-22T14:18:01.881Z,44.70
2018-06-22T14:20:30.412Z,43.80
2018-06-22T14:22:59.076Z,43.30
2018-06-22T14:25:29.657Z,42.70
2018-06-22T14:28:03.349Z,43.00
2018-06-22T14:30:32.083Z,41.80
2018-06-22T14:33:03.316Z,41.80
2018-06-22T14:35:32.121Z,41.20
2018-06-22T14:38:05.471Z,41.40
2018-06-22T14:40:45.643Z,41.80
2018-06-22T14:43:14.171Z,42.70
2018-06-22T14:48:18.061Z,44.20
2018-06-22T14:50:46.583Z,44.40
2018-06-22T14:54:24.397Z,44.70
2018-06-22T14:56:58.203Z,44.90
2018-06-22T14:59:31.978Z,45.20
2018-06-22T15:02:10.615Z,45.20
2018-06-22T15:04:48.686Z,45.10
2018-06-22T15:07:24.094Z,45.40
2018-06-22T15:09:52.620Z,44.80
2018-06-22T15:12:21.726Z,44.70
2018-06-22T15:14:58.553Z,44.20
2018-06-22T15:17:29.115Z,44.00
2018-06-22T15:19:58.332Z,44.00
2018-06-22T15:22:26.853Z,43.90
2018-06-22T15:24:55.759Z,43.80
2018-06-22T15:27:24.297Z,43.70
2018-06-22T15:32:28.593Z,43.10
2018-06-22T15:35:02.557Z,42.90
2018-06-22T15:38:39.017Z,42.90
2018-06-22T15:41:18.723Z,43.10
2018-06-22T15:43:53.983Z,43.50
2018-06-22T15:49:08.641Z,43.10
2018-06-22T15:51:47.694Z,42.80
2018-06-22T15:54:21.642Z,43.10
2018-06-22T15:56:50.533Z,42.50
2018-06-22T15:59:27.806Z,42.70
2018-06-22T16:02:04.234Z,43.30
2018-06-22T16:04:32.728Z,43.30
2018-06-22T16:07:06.846Z,43.60
2018-06-22T16:09:39.603Z,43.30
2018-06-22T16:12:16.917Z,42.90
2018-06-22T16:14:52.846Z,42.60
2018-06-22T16:17:31.811Z,42.40
2018-06-22T16:20:05.771Z,42.30
2018-06-22T16:22:44.492Z,42.40
2018-06-22T16:25:18.496Z,42.40
2018-06-22T16:27:51.422Z,41.90
2018-06-22T16:30:24.260Z,42.40
2018-06-22T16:32:55.437Z,42.60
2018-06-22T16:35:26.246Z,43.40
2018-06-22T16:37:55.232Z,43.80
2018-06-22T16:40:26.270Z,44.00
2018-06-22T16:42:56.346Z,44.00
2018-06-22T16:45:31.936Z,44.10
2018-06-22T16:48:00.760Z,44.10
2018-06-22T16:50:31.330Z,44.00
2018-06-22T16:53:00.116Z,44.50
2018-06-22T16:55:28.779Z,44.80
2018-06-22T16:57:58.264Z,44.80
2018-06-22T17:01:30.172Z,44.70
2018-06-22T17:04:02.151Z,45.00
2018-06-22T17:06:35.916Z,44.80
2018-06-22T17:09:13.267Z,44.60
2018-06-22T17:11:50.682Z,44.60
2018-06-22T17:14:25.953Z,44.10
2018-06-22T17:17:00.344Z,44.00
2018-06-22T17:19:31.282Z,44.00
2018-06-22T17:22:00.924Z,44.00
2018-06-22T17:24:30.928Z,44.40
2018-06-22T17:26:59.983Z,44.60
2018-06-22T17:29:28.638Z,44.70
2018-06-22T17:32:00.396Z,44.70
2018-06-22T17:34:30.047Z,44.80
2018-06-22T17:37:01.632Z,44.70
2018-06-22T17:39:31.457Z,44.90
2018-06-22T17:42:03.443Z,45.40
2018-06-22T17:44:32.012Z,45.60
2018-06-22T17:47:08.031Z,45.80
2018-06-22T17:49:36.952Z,46.10
2018-06-22T17:52:05.500Z,46.60
2018-06-22T17:54:34.384Z,46.60
2018-06-22T17:57:02.951Z,46.50
2018-06-22T18:02:10.458Z,46.20
2018-06-22T18:04:40.872Z,46.10
2018-06-22T18:07:14.656Z,45.90
2018-06-22T18:09:50.521Z,45.50
2018-06-22T18:12:24.623Z,45.40
2018-06-22T18:14:53.046Z,45.10
2018-06-22T18:17:22.668Z,45.00
2018-06-22T18:19:51.211Z,45.40
2018-06-22T18:22:20.877Z,45.80
2018-06-22T18:24:50.323Z,46.20
2018-06-22T18:27:20.064Z,46.40
2018-06-22T18:29:49.643Z,46.90
2018-06-22T18:34:46.376Z,47.30
2018-06-22T18:37:16.917Z,47.50
2018-06-22T18:39:45.663Z,47.80
2018-06-22T18:42:14.300Z,48.00
2018-06-22T18:47:12.474Z,48.40
2018-06-22T18:52:24.545Z,48.80
2018-06-22T18:55:12.626Z,48.40
2018-06-22T18:57:50.992Z,48.40
2018-06-22T19:00:29.248Z,48.60
2018-06-22T19:03:02.918Z,48.70
2018-06-22T19:05:31.447Z,48.90
2018-06-22T19:08:00.533Z,49.00
2018-06-22T19:10:29.099Z,49.00
2018-06-22T19:12:57.792Z,49.20
2018-06-22T19:15:26.414Z,49.40
2018-06-22T19:17:55.171Z,49.40
2018-06-22T19:20:25.331Z,49.40
2018-06-22T19:22:53.880Z,49.20
2018-06-22T19:25:22.598Z,49.20
2018-06-22T19:27:51.204Z,49.20
2018-06-22T19:30:19.815Z,49.20
2018-06-22T19:32:48.668Z,49.20
2018-06-22T19:35:17.237Z,49.40
2018-06-22T19:37:45.757Z,49.50
2018-06-22T19:40:14.308Z,49.50
2018-06-22T19:42:43.441Z,49.60
2018-06-22T19:45:18.049Z,49.60
2018-06-22T19:47:52.122Z,49.70
2018-06-22T19:50:28.849Z,49.80
2018-06-22T19:53:03.854Z,50.10
2018-06-22T19:55:32.470Z,50.30
2018-06-22T19:58:01.008Z,51.00
2018-06-22T20:00:29.543Z,50.60
2018-06-22T20:02:58.064Z,50.80
2018-06-22T20:05:26.560Z,50.90
2018-06-22T20:07:56.419Z,51.10
2018-06-22T20:10:24.920Z,51.20
2018-06-22T20:12:53.497Z,51.40
2018-06-22T20:15:24.347Z,51.60
2018-06-22T20:17:53.669Z,51.70
2018-06-22T20:20:22.371Z,51.80
2018-06-22T20:22:52.269Z,52.00
2018-06-22T20:25:25.979Z,52.00
2018-06-22T20:27:54.610Z,52.10
2018-06-22T20:30:25.338Z,52.30
2018-06-22T20:32:54.055Z,52.30
2018-06-22T20:35:27.766Z,52.40
2018-06-22T20:38:01.565Z,52.30
2018-06-22T20:40:35.480Z,52.40
2018-06-22T20:44:08.155Z,53.10
2018-06-22T20:46:41.891Z,52.30
2018-06-22T20:49:15.871Z,52.80
2018-06-22T20:51:45.053Z,52.80
2018-06-22T20:54:14.391Z,52.80
2018-06-22T20:56:45.668Z,52.70
2018-06-22T20:59:15.847Z,52.90
2018-06-22T21:01:44.547Z,52.90
2018-06-22T21:04:13.843Z,53.00
2018-06-22T21:11:52.420Z,53.50
2018-06-22T21:14:22.176Z,53.80
2018-06-22T21:16:50.711Z,53.80
2018-06-22T21:19:19.221Z,53.90
2018-06-22T21:24:21.240Z,54.30
2018-06-22T21:26:49.919Z,54.30
2018-06-22T21:29:23.788Z,54.30
2018-06-22T21:34:34.170Z,54.40
2018-06-22T21:37:14.232Z,54.50
2018-06-22T21:39:42.980Z,54.40
2018-06-22T21:42:12.155Z,54.50
2018-06-22T21:44:40.717Z,54.60
2018-06-22T21:47:09.354Z,54.50
2018-06-22T21:49:39.845Z,54.50
2018-06-22T21:55:35.130Z,54.40
2018-06-22T21:58:10.404Z,54.60
2018-06-22T22:00:40.397Z,54.40
2018-06-22T22:05:48.824Z,54.60
2018-06-22T22:08:17.488Z,55.40
2018-06-22T22:10:51.360Z,54.80
2018-06-22T22:13:19.850Z,54.90
2018-06-22T22:15:50.632Z,55.10
2018-06-22T22:18:20.246Z,55.20
2018-06-22T22:20:48.844Z,55.20
2018-06-22T22:23:21.976Z,55.20
2018-06-22T22:25:54.158Z,55.20
2018-06-22T22:28:22.941Z,55.30
2018-06-22T22:33:21.300Z,55.60
2018-06-22T22:38:22.844Z,55.50
2018-06-22T22:40:51.371Z,55.50
2018-06-22T22:43:20.269Z,55.40
2018-06-22T22:45:49.008Z,55.40
2018-06-22T22:48:17.698Z,55.40
2018-06-22T22:50:46.227Z,55.20
2018-06-22T22:53:15.095Z,55.50
2018-06-22T22:55:44.434Z,55.40
2018-06-22T22:58:13.631Z,55.40
2018-06-22T23:00:42.734Z,55.40
2018-06-22T23:03:12.055Z,55.50
2018-06-22T23:05:40.671Z,55.60
2018-06-22T23:08:09.401Z,55.50
2018-06-22T23:10:38.059Z,55.50
2018-06-22T23:15:35.559Z,55.70
2018-06-22T23:18:04.438Z,55.70
2018-06-22T23:23:12.630Z,56.10
2018-06-22T23:25:44.400Z,56.30
2018-06-22T23:30:41.867Z,56.40
2018-06-22T23:33:10.497Z,56.50
2018-06-22T23:35:39.107Z,56.60
2018-06-22T23:38:07.687Z,56.70
2018-06-22T23:40:36.965Z,56.50
2018-06-22T23:43:05.625Z,56.90
2018-06-22T23:45:35.159Z,56.90
2018-06-22T23:48:03.743Z,56.80
2018-06-22T23:50:32.331Z,56.80
2018-06-22T23:53:01.843Z,57.00
2018-06-22T23:55:30.387Z,57.10
2018-06-22T23:57:59.009Z,57.00
